createdAt,value
2019-01-06T00:01:05.546Z,20.97
2019-01-06T00:03:53.829Z,20.00
2019-01-06T00:06:40.028Z,23.90
2019-01-06T00:09:32.242Z,20.30
2019-01-06T00:12:20.516Z,27.00
2019-01-06T00:15:04.226Z,26.03
2019-01-06T00:17:51.343Z,27.80
2019-01-06T00:20:44.391Z,23.63
2019-01-06T00:23:32.653Z,22.07
2019-01-06T00:26:30.132Z,23.47
2019-01-06T00:29:33.808Z,27.70
2019-01-06T00:32:20.857Z,23.53
2019-01-06T00:35:28.393Z,26.67
2019-01-06T00:38:35.638Z,30.50
2019-01-06T00:41:42.893Z,28.40
2019-01-06T00:44:50.163Z,26.00
2019-01-06T00:50:56.339Z,23.67
2019-01-06T00:53:56.741Z,28.33
2019-01-06T00:56:56.330Z,25.53
2019-01-06T00:59:50.343Z,27.50
2019-01-06T01:02:50.329Z,29.50
2019-01-06T01:05:50.965Z,29.47
2019-01-06T01:08:48.052Z,21.30
2019-01-06T01:11:48.393Z,27.90
2019-01-06T01:14:48.820Z,24.93
2019-01-06T01:17:51.521Z,28.43
2019-01-06T01:20:56.825Z,29.13
2019-01-06T01:23:45.074Z,24.60
2019-01-06T01:26:52.347Z,25.97
2019-01-06T01:29:59.695Z,20.50
2019-01-06T01:33:07.100Z,26.07
2019-01-06T01:39:09.198Z,31.10
2019-01-06T01:42:14.804Z,26.03
2019-01-06T01:45:15.479Z,24.30
2019-01-06T01:48:15.537Z,24.70
2019-01-06T01:51:16.222Z,21.07
2019-01-06T01:54:21.525Z,28.77
2019-01-06T01:57:21.650Z,20.43
2019-01-06T02:03:26.549Z,24.90
2019-01-06T02:09:35.573Z,23.50
2019-01-06T02:12:38.020Z,27.63
2019-01-06T02:15:37.971Z,29.77
2019-01-06T02:18:37.488Z,23.63
2019-01-06T02:21:37.138Z,25.07
2019-01-06T02:24:37.809Z,29.30
2019-01-06T02:27:38.907Z,29.37
2019-01-06T02:30:39.111Z,27.23
2019-01-06T02:33:39.722Z,25.07
2019-01-06T02:36:40.818Z,26.40
2019-01-06T02:42:43.152Z,29.80
2019-01-06T02:45:31.385Z,26.70
2019-01-06T02:48:38.723Z,28.27
2019-01-06T02:51:46.050Z,29.77
2019-01-06T02:54:53.340Z,30.27
2019-01-06T02:58:00.607Z,26.83
2019-01-06T03:01:07.943Z,37.30
2019-01-06T03:04:15.225Z,27.50
2019-01-06T03:07:22.502Z,23.80
2019-01-06T03:10:29.858Z,28.97
2019-01-06T03:13:37.198Z,28.83
2019-01-06T03:16:44.597Z,29.77
2019-01-06T03:19:51.832Z,25.63
2019-01-06T03:22:59.122Z,26.30
2019-01-06T03:26:06.397Z,24.03
2019-01-06T03:29:13.940Z,26.10
2019-01-06T03:32:21.224Z,31.30
2019-01-06T03:35:28.593Z,30.33
2019-01-06T03:38:35.926Z,27.63
2019-01-06T03:41:43.253Z,24.20
2019-01-06T03:44:43.496Z,23.03
2019-01-06T03:47:43.011Z,26.63
2019-01-06T03:53:49.406Z,19.80
2019-01-06T03:56:49.442Z,19.03
2019-01-06T03:59:45.424Z,17.23
2019-01-06T04:02:52.717Z,17.47
2019-01-06T04:06:00.044Z,17.40
2019-01-06T04:09:07.381Z,17.87
2019-01-06T04:11:55.847Z,18.23
2019-01-06T04:14:53.828Z,13.20
2019-01-06T04:18:01.132Z,15.10
2019-01-06T04:21:08.391Z,17.00
2019-01-06T04:24:04.113Z,16.53
2019-01-06T04:27:04.646Z,19.83
2019-01-06T04:30:07.750Z,19.00
2019-01-06T04:33:07.387Z,15.80
2019-01-06T04:36:06.954Z,17.53
2019-01-06T04:42:15.861Z,18.63
2019-01-06T04:45:18.577Z,16.77
2019-01-06T04:48:18.827Z,17.33
2019-01-06T04:51:18.500Z,18.50
2019-01-06T04:54:26.842Z,19.67
2019-01-06T04:57:27.228Z,18.93
2019-01-06T05:00:27.482Z,23.50
2019-01-06T05:06:13.370Z,31.33
2019-01-06T05:12:24.018Z,26.93
2019-01-06T05:18:33.804Z,30.63
2019-01-06T05:21:34.382Z,31.83
2019-01-06T05:27:43.014Z,30.77
2019-01-06T05:33:55.281Z,40.23
2019-01-06T05:40:07.322Z,47.97
2019-01-06T05:43:09.704Z,35.40
2019-01-06T05:46:03.313Z,39.90
2019-01-06T05:49:06.381Z,44.47
2019-01-06T05:52:06.002Z,46.23
2019-01-06T05:55:09.306Z,45.07
2019-01-06T05:58:10.816Z,42.77
2019-01-06T06:01:10.527Z,53.07
2019-01-06T06:04:12.266Z,49.40
2019-01-06T06:07:15.434Z,50.63
2019-01-06T06:10:18.034Z,48.20
2019-01-06T06:13:19.519Z,57.00
2019-01-06T06:19:29.461Z,53.90
2019-01-06T06:22:14.740Z,47.83
2019-01-06T06:25:15.789Z,56.73
2019-01-06T06:31:27.748Z,49.70
2019-01-06T06:34:28.165Z,53.93
2019-01-06T06:37:27.087Z,58.57
2019-01-06T06:40:30.474Z,59.77
2019-01-06T06:43:11.073Z,50.73
2019-01-06T06:46:17.193Z,51.47
2019-01-06T06:52:21.909Z,63.30
2019-01-06T06:58:24.010Z,57.83
2019-01-06T07:01:06.220Z,62.37
2019-01-06T07:03:55.436Z,79.93
2019-01-06T07:06:42.617Z,64.63
2019-01-06T07:09:36.786Z,66.20
2019-01-06T07:12:24.016Z,67.60
2019-01-06T07:15:11.413Z,70.27
2019-01-06T07:18:08.150Z,62.33
2019-01-06T07:20:58.296Z,61.80
2019-01-06T07:23:45.473Z,69.87
2019-01-06T07:26:32.743Z,74.23
2019-01-06T07:29:16.677Z,74.30
2019-01-06T07:32:11.153Z,63.87
2019-01-06T07:35:17.657Z,86.17
2019-01-06T07:38:12.293Z,59.33
2019-01-06T07:40:59.397Z,75.27
2019-01-06T07:43:47.697Z,64.17
2019-01-06T07:46:35.928Z,73.40
2019-01-06T07:49:39.204Z,68.87
2019-01-06T07:52:20.936Z,72.33
2019-01-06T07:55:18.873Z,71.40
2019-01-06T07:58:05.805Z,77.20
2019-01-06T08:00:54.797Z,65.53
2019-01-06T08:03:43.076Z,81.03
2019-01-06T08:06:43.672Z,60.10
2019-01-06T08:09:31.989Z,73.87
2019-01-06T08:12:18.826Z,71.13
2019-01-06T08:15:07.485Z,72.53
2019-01-06T08:17:55.877Z,63.83
2019-01-06T08:20:51.374Z,68.27
2019-01-06T08:23:56.315Z,64.77
2019-01-06T08:26:53.852Z,62.67
2019-01-06T08:29:45.232Z,69.53
2019-01-06T08:32:36.511Z,69.30
2019-01-06T08:35:23.644Z,66.47
2019-01-06T08:38:10.972Z,64.40
2019-01-06T08:40:51.183Z,70.47
2019-01-06T08:43:38.666Z,72.53
2019-01-06T08:46:25.553Z,71.03
2019-01-06T08:49:16.856Z,71.93
2019-01-06T08:52:24.120Z,71.13
2019-01-06T08:55:26.970Z,73.57
2019-01-06T08:58:30.461Z,68.33
2019-01-06T09:01:35.013Z,73.60
2019-01-06T09:04:46.969Z,71.10
2019-01-06T09:07:34.387Z,74.27
2019-01-06T09:10:21.514Z,73.40
2019-01-06T09:13:19.724Z,77.33
2019-01-06T09:16:06.875Z,79.27
2019-01-06T09:19:10.654Z,70.27
2019-01-06T09:22:08.456Z,79.50
2019-01-06T09:25:05.898Z,70.87
2019-01-06T09:28:04.740Z,65.10
2019-01-06T09:30:52.058Z,66.83
2019-01-06T09:33:46.680Z,123.13
2019-01-06T09:36:33.597Z,168.83
2019-01-06T09:39:30.897Z,71.13
2019-01-06T09:42:28.710Z,80.77
2019-01-06T09:45:16.981Z,76.37
2019-01-06T09:48:03.809Z,70.90
2019-01-06T09:50:50.896Z,85.07
2019-01-06T09:53:42.187Z,102.70
2019-01-06T09:56:42.515Z,64.37
2019-01-06T09:59:37.910Z,61.90
2019-01-06T10:02:29.199Z,65.57
2019-01-06T10:05:20.310Z,74.80
2019-01-06T10:08:08.557Z,58.27
2019-01-06T10:11:05.940Z,54.73
2019-01-06T10:14:02.687Z,51.77
2019-01-06T10:17:09.504Z,51.53
2019-01-06T10:19:56.627Z,48.30
2019-01-06T10:22:48.037Z,51.77
2019-01-06T10:25:35.626Z,54.53
2019-01-06T10:28:39.287Z,45.93
2019-01-06T10:31:27.861Z,50.00
2019-01-06T10:34:15.232Z,55.20
2019-01-06T10:37:02.215Z,45.47
2019-01-06T10:39:49.172Z,53.40
2019-01-06T10:42:49.578Z,55.83
2019-01-06T10:45:34.956Z,48.00
2019-01-06T10:48:22.015Z,52.00
2019-01-06T10:51:13.260Z,53.23
2019-01-06T10:54:01.614Z,52.70
2019-01-06T10:56:48.789Z,54.83
2019-01-06T10:59:39.955Z,52.07
2019-01-06T11:02:34.521Z,45.53
2019-01-06T11:05:23.084Z,48.57
2019-01-06T11:08:11.326Z,50.70
2019-01-06T11:10:58.505Z,44.70
2019-01-06T11:13:41.203Z,49.30
2019-01-06T11:16:47.973Z,37.03
2019-01-06T11:19:36.192Z,48.73
2019-01-06T11:22:23.045Z,44.07
2019-01-06T11:25:14.018Z,48.37
2019-01-06T11:28:01.034Z,51.40
2019-01-06T11:30:48.204Z,47.70
2019-01-06T11:33:43.789Z,47.20
2019-01-06T11:36:31.525Z,48.60
2019-01-06T11:39:19.755Z,42.37
2019-01-06T11:42:08.505Z,43.10
2019-01-06T11:44:59.580Z,46.20
2019-01-06T11:47:47.841Z,40.87
2019-01-06T11:50:35.032Z,41.83
2019-01-06T11:53:23.797Z,47.83
2019-01-06T11:56:12.089Z,43.07
2019-01-06T11:59:03.414Z,48.10
2019-01-06T12:02:06.719Z,52.57
2019-01-06T12:04:53.587Z,46.20
2019-01-06T12:07:37.696Z,47.63
2019-01-06T12:10:17.269Z,50.30
2019-01-06T12:13:13.984Z,44.87
2019-01-06T12:15:56.929Z,47.03
2019-01-06T12:18:44.121Z,37.23
2019-01-06T12:21:32.865Z,39.93
2019-01-06T12:24:22.565Z,44.30
2019-01-06T12:27:08.133Z,45.70
2019-01-06T12:30:02.629Z,54.93
2019-01-06T12:32:59.799Z,45.17
2019-01-06T12:35:50.848Z,48.93
2019-01-06T12:38:43.286Z,42.87
2019-01-06T12:41:34.575Z,38.70
2019-01-06T12:44:22.893Z,65.00
2019-01-06T12:47:16.795Z,45.23
2019-01-06T12:50:04.059Z,42.93
2019-01-06T12:52:58.690Z,38.50
2019-01-06T12:55:53.085Z,40.33
2019-01-06T12:58:50.885Z,40.57
2019-01-06T13:01:37.761Z,45.30
2019-01-06T13:04:24.146Z,48.33
2019-01-06T13:07:11.521Z,48.80
2019-01-06T13:09:58.693Z,36.73
2019-01-06T13:12:45.880Z,40.83
2019-01-06T13:15:37.154Z,37.17
2019-01-06T13:18:24.299Z,40.17
2019-01-06T13:21:24.831Z,37.63
2019-01-06T13:24:29.893Z,33.93
2019-01-06T13:27:21.777Z,41.87
2019-01-06T13:30:16.157Z,37.10
2019-01-06T13:33:05.139Z,36.73
2019-01-06T13:35:56.493Z,44.40
2019-01-06T13:38:53.651Z,40.97
2019-01-06T13:41:40.544Z,45.70
2019-01-06T13:44:28.770Z,40.67
2019-01-06T13:47:20.237Z,39.10
2019-01-06T13:50:12.743Z,41.10
2019-01-06T13:52:59.974Z,36.73
2019-01-06T13:55:57.240Z,42.73
2019-01-06T13:58:44.408Z,33.60
2019-01-06T14:01:26.716Z,35.83
2019-01-06T14:04:16.313Z,32.10
2019-01-06T14:07:03.845Z,33.40
2019-01-06T14:09:50.816Z,37.40
2019-01-06T14:12:31.608Z,39.10
2019-01-06T14:15:18.556Z,27.60
2019-01-06T14:18:05.644Z,31.57
2019-01-06T14:21:03.544Z,32.77
2019-01-06T14:23:52.146Z,34.50
2019-01-06T14:26:40.389Z,30.70
2019-01-06T14:29:22.913Z,37.17
2019-01-06T14:32:26.474Z,34.53
2019-01-06T14:35:20.494Z,39.57
2019-01-06T14:38:14.838Z,62.40
2019-01-06T14:41:06.188Z,36.40
2019-01-06T14:43:50.788Z,37.07
2019-01-06T14:46:37.715Z,43.87
2019-01-06T14:49:32.358Z,30.20
2019-01-06T15:05:34.190Z,29.77
2019-01-06T15:08:28.663Z,25.57
2019-01-06T15:11:14.352Z,28.07
2019-01-06T15:14:18.048Z,25.70
2019-01-06T15:17:03.128Z,25.53
2019-01-06T15:19:50.355Z,39.40
2019-01-06T15:22:47.889Z,27.17
2019-01-06T15:25:34.992Z,29.93
2019-01-06T15:28:23.672Z,25.43
2019-01-06T15:31:14.977Z,30.00
2019-01-06T15:34:12.216Z,30.47
2019-01-06T15:37:12.567Z,27.33
2019-01-06T15:40:12.898Z,25.43
2019-01-06T15:43:16.301Z,31.60
2019-01-06T15:46:00.804Z,31.07
2019-01-06T15:48:48.097Z,34.57
2019-01-06T15:51:30.608Z,29.23
2019-01-06T15:54:17.697Z,37.93
2019-01-06T15:57:04.855Z,29.00
2019-01-06T15:59:56.259Z,34.10
2019-01-06T16:02:56.883Z,40.80
2019-01-06T16:05:41.982Z,40.83
2019-01-06T16:08:39.222Z,32.80
2019-01-06T16:11:26.441Z,31.97
2019-01-06T16:14:24.025Z,48.00
2019-01-06T16:17:18.076Z,40.13
2019-01-06T16:20:09.305Z,37.87
2019-01-06T16:23:00.424Z,41.20
2019-01-06T16:25:54.735Z,42.60
2019-01-06T16:28:43.246Z,41.40
2019-01-06T16:31:30.115Z,36.90
2019-01-06T16:34:24.327Z,43.63
2019-01-06T16:37:12.560Z,44.63
2019-01-06T16:40:04.000Z,41.97
2019-01-06T16:42:58.162Z,45.27
2019-01-06T16:46:04.554Z,43.93
2019-01-06T16:49:03.396Z,38.33
2019-01-06T16:51:51.605Z,44.40
2019-01-06T16:54:45.668Z,48.20
2019-01-06T16:57:32.609Z,53.77
2019-01-06T17:00:26.832Z,49.20
2019-01-06T17:03:33.644Z,45.47
2019-01-06T17:06:14.874Z,45.13
2019-01-06T17:09:05.901Z,51.00
2019-01-06T17:11:50.018Z,72.63
2019-01-06T17:14:29.777Z,53.40
2019-01-06T17:17:36.558Z,57.43
2019-01-06T17:20:36.982Z,44.23
2019-01-06T17:23:23.825Z,46.63
2019-01-06T17:26:12.041Z,39.40
2019-01-06T17:28:59.233Z,46.57
2019-01-06T17:31:53.680Z,48.07
2019-01-06T17:34:41.943Z,44.63
2019-01-06T17:37:41.594Z,48.33
2019-01-06T17:40:29.929Z,47.03
2019-01-06T17:43:33.276Z,43.57
2019-01-06T17:46:21.903Z,41.50
2019-01-06T17:49:10.051Z,45.67
2019-01-06T17:51:57.671Z,40.97
2019-01-06T17:54:52.241Z,45.47
2019-01-06T17:57:33.138Z,45.83
2019-01-06T18:00:20.641Z,47.80
2019-01-06T18:03:08.878Z,45.43
2019-01-06T18:06:06.397Z,45.47
2019-01-06T18:08:54.756Z,44.50
2019-01-06T18:11:47.740Z,44.80
2019-01-06T18:14:36.525Z,49.67
2019-01-06T18:17:23.882Z,45.00
2019-01-06T18:20:30.518Z,43.93
2019-01-06T18:23:33.772Z,52.40
2019-01-06T18:26:21.197Z,44.00
2019-01-06T18:29:02.836Z,56.50
2019-01-06T18:31:51.085Z,54.07
2019-01-06T18:34:39.307Z,47.17
2019-01-06T18:37:27.549Z,61.93
2019-01-06T18:40:14.637Z,48.00
2019-01-06T18:42:55.998Z,47.13
2019-01-06T18:46:02.429Z,58.47
2019-01-06T18:48:50.665Z,50.60
2019-01-06T18:51:52.472Z,51.80
2019-01-06T18:54:49.582Z,52.07
2019-01-06T18:57:52.926Z,43.87
2019-01-06T19:00:56.333Z,47.90
2019-01-06T19:03:55.476Z,51.10
2019-01-06T19:06:49.936Z,46.90
2019-01-06T19:09:38.173Z,57.03
2019-01-06T19:12:25.452Z,53.33
2019-01-06T19:15:13.700Z,46.67
2019-01-06T19:18:00.993Z,53.50
2019-01-06T19:21:07.618Z,48.53
2019-01-06T19:23:54.789Z,52.67
2019-01-06T19:26:43.058Z,53.20
2019-01-06T19:29:49.891Z,60.00
2019-01-06T19:32:38.280Z,53.93
2019-01-06T19:35:25.422Z,50.70
2019-01-06T19:38:20.320Z,55.70
2019-01-06T19:41:08.576Z,57.37
2019-01-06T19:44:15.179Z,55.37
2019-01-06T19:47:02.424Z,50.47
2019-01-06T19:49:54.378Z,52.30
2019-01-06T19:52:42.807Z,54.20
2019-01-06T19:55:24.950Z,57.13
2019-01-06T19:58:19.084Z,47.97
2019-01-06T20:01:06.420Z,57.23
2019-01-06T20:04:09.762Z,65.97
2019-01-06T20:07:00.841Z,51.97
2019-01-06T20:09:47.658Z,55.27
2019-01-06T20:12:44.749Z,59.23
2019-01-06T20:15:42.996Z,63.33
2019-01-06T20:18:34.130Z,59.53
2019-01-06T20:21:21.455Z,57.83
2019-01-06T20:24:08.593Z,59.43
2019-01-06T20:27:02.632Z,60.20
2019-01-06T20:29:49.651Z,55.47
2019-01-06T20:32:44.137Z,63.80
2019-01-06T20:35:26.433Z,58.23
2019-01-06T20:38:24.489Z,56.87
2019-01-06T20:41:31.165Z,60.97
2019-01-06T20:44:19.508Z,55.47
2019-01-06T20:47:16.873Z,56.87
2019-01-06T20:50:10.900Z,53.53
2019-01-06T20:52:57.728Z,64.83
2019-01-06T20:55:44.619Z,54.73
2019-01-06T20:58:31.480Z,67.37
2019-01-06T21:01:25.512Z,61.17
2019-01-06T21:04:12.643Z,58.80
2019-01-06T21:07:13.045Z,67.30
2019-01-06T21:10:00.274Z,58.77
2019-01-06T21:12:47.153Z,59.67
2019-01-06T21:15:44.625Z,59.10
2019-01-06T21:18:31.484Z,57.73
2019-01-06T21:21:18.576Z,58.07
2019-01-06T21:24:05.950Z,65.77
2019-01-06T21:26:55.302Z,60.43
2019-01-06T21:29:50.052Z,59.60
2019-01-06T21:32:37.485Z,61.50
2019-01-06T21:35:24.358Z,55.93
2019-01-06T21:38:12.576Z,65.37
2019-01-06T21:41:01.179Z,63.40
2019-01-06T21:44:00.803Z,63.13
2019-01-06T21:47:07.304Z,57.63
2019-01-06T21:49:58.553Z,48.70
2019-01-06T21:52:52.948Z,59.23
2019-01-06T21:55:41.198Z,54.60
2019-01-06T21:58:29.695Z,68.93
2019-01-06T22:01:16.761Z,60.07
2019-01-06T22:04:03.778Z,56.50
2019-01-06T22:06:47.787Z,69.37
2019-01-06T22:09:31.945Z,59.43
2019-01-06T22:12:23.689Z,61.83
2019-01-06T22:15:15.905Z,60.60
2019-01-06T22:18:08.788Z,65.37
2019-01-06T22:21:15.470Z,59.57
2019-01-06T22:24:02.538Z,65.37
2019-01-06T22:26:53.355Z,64.00
2019-01-06T22:29:44.449Z,68.53
2019-01-06T22:32:32.850Z,69.70
2019-01-06T22:35:20.298Z,67.30
2019-01-06T22:38:02.646Z,69.33
2019-01-06T22:40:50.898Z,64.70
2019-01-06T22:43:40.877Z,66.20
2019-01-06T22:46:48.205Z,63.63
2019-01-06T22:49:37.358Z,70.20
2019-01-06T22:52:22.398Z,69.80
2019-01-06T22:55:23.032Z,74.07
2019-01-06T22:58:11.338Z,64.47
2019-01-06T23:00:58.790Z,67.83
2019-01-06T23:03:57.984Z,70.93
2019-01-06T23:06:47.531Z,69.10
2019-01-06T23:09:34.820Z,83.10
2019-01-06T23:12:21.905Z,63.53
2019-01-06T23:15:08.785Z,60.90
2019-01-06T23:17:57.911Z,71.40
2019-01-06T23:20:55.353Z,62.03
2019-01-06T23:23:42.417Z,74.07
2019-01-06T23:26:30.692Z,65.50
2019-01-06T23:29:27.862Z,65.33
2019-01-06T23:32:15.124Z,71.27
2019-01-06T23:35:03.429Z,69.50
2019-01-06T23:38:00.629Z,74.37
2019-01-06T23:40:58.227Z,66.20
2019-01-06T23:43:49.260Z,63.47
2019-01-06T23:46:38.757Z,65.67
2019-01-06T23:49:25.608Z,67.63
2019-01-06T23:52:12.521Z,72.40
2019-01-06T23:55:00.875Z,59.80
2019-01-06T23:58:02.255Z,63.37
